sensor_id;sensor_type;location;lat;lon;timestamp;P1;durP1;ratioP1;P2;durP2;ratioP2
22415;SDS011;12204;50.600;4.608;2023-10-09T00:02:34;6.35;;;2.38;;
22415;SDS011;12204;50.600;4.608;2023-10-09T00:07:37;6.82;;;2.20;;
22415;SDS011;12204;50.600;4.608;2023-10-09T00:12:41;8.10;;;2.15;;
22415;SDS011;12204;50.600;4.608;2023-10-09T00:17:47;11.02;;;2.45;;
22415;SDS011;12204;50.600;4.608;2023-10-09T00:22:51;8.48;;;2.35;;
22415;SDS011;12204;50.600;4.608;2023-10-09T00:27:57;5.57;;;2.10;;
22415;SDS011;12204;50.600;4.608;2023-10-09T00:33:05;5.60;;;2.10;;
22415;SDS011;12204;50.600;4.608;2023-10-09T00:38:11;6.38;;;2.20;;
22415;SDS011;12204;50.600;4.608;2023-10-09T00:43:25;8.63;;;2.38;;
22415;SDS011;12204;50.600;4.608;2023-10-09T00:48:32;8.38;;;2.30;;
22415;SDS011;12204;50.600;4.608;2023-10-09T00:53:41;6.10;;;2.30;;
22415;SDS011;12204;50.600;4.608;2023-10-09T00:58:50;7.50;;;2.10;;
22415;SDS011;12204;50.600;4.608;2023-10-09T01:04:02;7.38;;;2.10;;
22415;SDS011;12204;50.600;4.608;2023-10-09T01:09:17;7.43;;;2.30;;
22415;SDS011;12204;50.600;4.608;2023-10-09T01:14:21;5.38;;;1.95;;
22415;SDS011;12204;50.600;4.608;2023-10-09T01:19:26;8.23;;;2.50;;
22415;SDS011;12204;50.600;4.608;2023-10-09T01:24:33;7.57;;;2.08;;
22415;SDS011;12204;50.600;4.608;2023-10-09T01:29:40;6.28;;;2.17;;
22415;SDS011;12204;50.600;4.608;2023-10-09T01:34:45;5.68;;;2.05;;
22415;SDS011;12204;50.600;4.608;2023-10-09T01:39:52;8.13;;;2.30;;
22415;SDS011;12204;50.600;4.608;2023-10-09T01:45:00;6.65;;;2.20;;
22415;SDS011;12204;50.600;4.608;2023-10-09T01:50:12;6.03;;;2.17;;
22415;SDS011;12204;50.600;4.608;2023-10-09T01:55:24;5.32;;;2.08;;
22415;SDS011;12204;50.600;4.608;2023-10-09T02:00:35;4.95;;;2.03;;
22415;SDS011;12204;50.600;4.608;2023-10-09T02:05:45;6.40;;;2.30;;
22415;SDS011;12204;50.600;4.608;2023-10-09T02:10:50;5.40;;;2.10;;
22415;SDS011;12204;50.600;4.608;2023-10-09T02:15:57;8.38;;;2.20;;
22415;SDS011;12204;50.600;4.608;2023-10-09T02:21:14;9.55;;;2.08;;
22415;SDS011;12204;50.600;4.608;2023-10-09T02:26:31;6.00;;;2.30;;
22415;SDS011;12204;50.600;4.608;2023-10-09T02:31:57;5.10;;;2.10;;
22415;SDS011;12204;50.600;4.608;2023-10-09T02:37:14;6.60;;;2.05;;
22415;SDS011;12204;50.600;4.608;2023-10-09T02:42:26;8.27;;;2.20;;
22415;SDS011;12204;50.600;4.608;2023-10-09T02:47:30;7.53;;;2.17;;
22415;SDS011;12204;50.600;4.608;2023-10-09T02:52:40;7.25;;;1.90;;
22415;SDS011;12204;50.600;4.608;2023-10-09T02:57:46;5.20;;;2.10;;
22415;SDS011;12204;50.600;4.608;2023-10-09T03:02:53;6.05;;;2.08;;
22415;SDS011;12204;50.600;4.608;2023-10-09T03:08:00;8.77;;;1.73;;
22415;SDS011;12204;50.600;4.608;2023-10-09T03:13:05;5.15;;;1.80;;
22415;SDS011;12204;50.600;4.608;2023-10-09T03:18:08;6.93;;;2.05;;
22415;SDS011;12204;50.600;4.608;2023-10-09T03:23:16;6.68;;;1.80;;
22415;SDS011;12204;50.600;4.608;2023-10-09T03:28:21;5.38;;;1.90;;
22415;SDS011;12204;50.600;4.608;2023-10-09T03:33:24;9.32;;;2.00;;
22415;SDS011;12204;50.600;4.608;2023-10-09T03:38:28;5.85;;;1.85;;
22415;SDS011;12204;50.600;4.608;2023-10-09T03:48:42;5.28;;;1.60;;
22415;SDS011;12204;50.600;4.608;2023-10-09T03:53:48;5.65;;;1.90;;
22415;SDS011;12204;50.600;4.608;2023-10-09T03:58:55;6.75;;;1.80;;
22415;SDS011;12204;50.600;4.608;2023-10-09T04:03:59;4.68;;;1.92;;
22415;SDS011;12204;50.600;4.608;2023-10-09T04:09:06;6.03;;;1.92;;
22415;SDS011;12204;50.600;4.608;2023-10-09T04:14:31;4.82;;;1.80;;
22415;SDS011;12204;50.600;4.608;2023-10-09T04:19:35;5.38;;;1.70;;
22415;SDS011;12204;50.600;4.608;2023-10-09T04:24:49;6.78;;;2.10;;
22415;SDS011;12204;50.600;4.608;2023-10-09T04:29:54;7.78;;;1.73;;
22415;SDS011;12204;50.600;4.608;2023-10-09T04:34:58;6.65;;;2.20;;
22415;SDS011;12204;50.600;4.608;2023-10-09T04:40:22;9.82;;;1.92;;
22415;SDS011;12204;50.600;4.608;2023-10-09T04:51:09;7.20;;;1.80;;
22415;SDS011;12204;50.600;4.608;2023-10-09T04:56:30;9.75;;;1.65;;
22415;SDS011;12204;50.600;4.608;2023-10-09T05:01:36;8.00;;;1.98;;
22415;SDS011;12204;50.600;4.608;2023-10-09T05:06:45;7.25;;;1.80;;
22415;SDS011;12204;50.600;4.608;2023-10-09T05:11:57;8.95;;;2.08;;
22415;SDS011;12204;50.600;4.608;2023-10-09T05:17:18;5.20;;;1.80;;
22415;SDS011;12204;50.600;4.608;2023-10-09T05:22:27;6.55;;;1.95;;
22415;SDS011;12204;50.600;4.608;2023-10-09T05:27:39;6.20;;;1.70;;
22415;SDS011;12204;50.600;4.608;2023-10-09T05:32:54;6.05;;;2.03;;
22415;SDS011;12204;50.600;4.608;2023-10-09T05:38:22;5.50;;;1.70;;
22415;SDS011;12204;50.600;4.608;2023-10-09T05:43:26;5.13;;;1.70;;
22415;SDS011;12204;50.600;4.608;2023-10-09T05:48:48;3.85;;;1.60;;
22415;SDS011;12204;50.600;4.608;2023-10-09T05:53:56;7.05;;;1.90;;
22415;SDS011;12204;50.600;4.608;2023-10-09T05:59:18;5.13;;;1.80;;
22415;SDS011;12204;50.600;4.608;2023-10-09T06:04:40;6.50;;;2.00;;
22415;SDS011;12204;50.600;4.608;2023-10-09T06:09:56;7.60;;;1.60;;
22415;SDS011;12204;50.600;4.608;2023-10-09T06:15:12;3.70;;;1.67;;
22415;SDS011;12204;50.600;4.608;2023-10-09T06:20:35;4.28;;;1.77;;
22415;SDS011;12204;50.600;4.608;2023-10-09T06:26:08;5.45;;;1.80;;
22415;SDS011;12204;50.600;4.608;2023-10-09T06:31:25;4.70;;;1.88;;
22415;SDS011;12204;50.600;4.608;2023-10-09T06:36:32;9.40;;;2.00;;
22415;SDS011;12204;50.600;4.608;2023-10-09T06:41:35;6.35;;;1.70;;
22415;SDS011;12204;50.600;4.608;2023-10-09T06:46:39;5.25;;;1.80;;
22415;SDS011;12204;50.600;4.608;2023-10-09T06:51:55;7.20;;;1.60;;
22415;SDS011;12204;50.600;4.608;2023-10-09T06:57:00;7.28;;;1.88;;
22415;SDS011;12204;50.600;4.608;2023-10-09T07:02:16;4.75;;;1.70;;
22415;SDS011;12204;50.600;4.608;2023-10-09T07:07:30;6.22;;;1.77;;
22415;SDS011;12204;50.600;4.608;2023-10-09T07:12:36;5.05;;;1.70;;
22415;SDS011;12204;50.600;4.608;2023-10-09T07:17:45;5.45;;;1.70;;
22415;SDS011;12204;50.600;4.608;2023-10-09T07:22:50;7.07;;;1.90;;
22415;SDS011;12204;50.600;4.608;2023-10-09T07:28:14;7.10;;;1.80;;
22415;SDS011;12204;50.600;4.608;2023-10-09T07:33:30;5.63;;;1.70;;
22415;SDS011;12204;50.600;4.608;2023-10-09T07:38:54;6.57;;;1.77;;
22415;SDS011;12204;50.600;4.608;2023-10-09T07:44:01;5.35;;;1.63;;
22415;SDS011;12204;50.600;4.608;2023-10-09T07:49:20;6.10;;;1.70;;
22415;SDS011;12204;50.600;4.608;2023-10-09T07:54:28;5.53;;;1.70;;
22415;SDS011;12204;50.600;4.608;2023-10-09T07:59:34;17.20;;;3.40;;
22415;SDS011;12204;50.600;4.608;2023-10-09T08:04:42;15.45;;;4.00;;
22415;SDS011;12204;50.600;4.608;2023-10-09T08:09:51;12.23;;;4.05;;
22415;SDS011;12204;50.600;4.608;2023-10-09T08:15:11;10.23;;;3.90;;
22415;SDS011;12204;50.600;4.608;2023-10-09T08:20:27;10.95;;;3.78;;
22415;SDS011;12204;50.600;4.608;2023-10-09T08:25:39;10.80;;;3.80;;
22415;SDS011;12204;50.600;4.608;2023-10-09T08:30:58;12.85;;;4.40;;
22415;SDS011;12204;50.600;4.608;2023-10-09T08:36:05;16.13;;;4.40;;
22415;SDS011;12204;50.600;4.608;2023-10-09T08:41:17;17.20;;;5.50;;
22415;SDS011;12204;50.600;4.608;2023-10-09T08:46:25;16.35;;;5.05;;
22415;SDS011;12204;50.600;4.608;2023-10-09T08:51:30;19.30;;;4.95;;
22415;SDS011;12204;50.600;4.608;2023-10-09T08:56:36;10.85;;;4.68;;
22415;SDS011;12204;50.600;4.608;2023-10-09T09:01:51;10.88;;;4.20;;
22415;SDS011;12204;50.600;4.608;2023-10-09T09:06:54;13.18;;;5.13;;
22415;SDS011;12204;50.600;4.608;2023-10-09T09:11:59;13.57;;;4.80;;
22415;SDS011;12204;50.600;4.608;2023-10-09T09:17:04;13.98;;;4.63;;
22415;SDS011;12204;50.600;4.608;2023-10-09T09:22:13;11.23;;;4.78;;
22415;SDS011;12204;50.600;4.608;2023-10-09T09:27:17;12.95;;;5.15;;
22415;SDS011;12204;50.600;4.608;2023-10-09T09:32:31;11.05;;;4.80;;
22415;SDS011;12204;50.600;4.608;2023-10-09T09:37:38;10.15;;;4.88;;
22415;SDS011;12204;50.600;4.608;2023-10-09T09:42:53;12.07;;;5.00;;
22415;SDS011;12204;50.600;4.608;2023-10-09T09:48:06;10.80;;;5.25;;
22415;SDS011;12204;50.600;4.608;2023-10-09T09:53:12;10.63;;;4.68;;
22415;SDS011;12204;50.600;4.608;2023-10-09T09:58:21;11.75;;;5.07;;
22415;SDS011;12204;50.600;4.608;2023-10-09T10:03:27;10.68;;;5.10;;
22415;SDS011;12204;50.600;4.608;2023-10-09T10:08:37;13.93;;;5.00;;
22415;SDS011;12204;50.600;4.608;2023-10-09T10:13:57;14.02;;;5.35;;
22415;SDS011;12204;50.600;4.608;2023-10-09T10:19:05;13.15;;;5.28;;
22415;SDS011;12204;50.600;4.608;2023-10-09T10:24:42;14.45;;;5.45;;
22415;SDS011;12204;50.600;4.608;2023-10-09T10:35:38;11.68;;;4.95;;
22415;SDS011;12204;50.600;4.608;2023-10-09T10:40:48;11.18;;;4.80;;
22415;SDS011;12204;50.600;4.608;2023-10-09T10:46:03;12.65;;;4.70;;
22415;SDS011;12204;50.600;4.608;2023-10-09T10:51:15;9.03;;;4.10;;
22415;SDS011;12204;50.600;4.608;2023-10-09T10:56:37;12.35;;;5.25;;
22415;SDS011;12204;50.600;4.608;2023-10-09T11:01:42;12.13;;;6.50;;
22415;SDS011;12204;50.600;4.608;2023-10-09T11:06:55;22.17;;;9.82;;
22415;SDS011;12204;50.600;4.608;2023-10-09T11:12:08;23.13;;;11.30;;
22415;SDS011;12204;50.600;4.608;2023-10-09T11:17:24;20.70;;;11.30;;
22415;SDS011;12204;50.600;4.608;2023-10-09T11:22:29;18.95;;;9.25;;
22415;SDS011;12204;50.600;4.608;2023-10-09T11:27:39;20.85;;;9.32;;
22415;SDS011;12204;50.600;4.608;2023-10-09T11:33:04;18.40;;;8.80;;
22415;SDS011;12204;50.600;4.608;2023-10-09T11:38:15;21.13;;;8.75;;
22415;SDS011;12204;50.600;4.608;2023-10-09T11:43:24;14.27;;;7.50;;
22415;SDS011;12204;50.600;4.608;2023-10-09T11:49:02;17.52;;;7.00;;
22415;SDS011;12204;50.600;4.608;2023-10-09T11:54:34;12.55;;;6.32;;
22415;SDS011;12204;50.600;4.608;2023-10-09T11:59:38;13.80;;;6.25;;
22415;SDS011;12204;50.600;4.608;2023-10-09T12:04:44;14.00;;;5.38;;
22415;SDS011;12204;50.600;4.608;2023-10-09T12:09:47;12.75;;;5.22;;
22415;SDS011;12204;50.600;4.608;2023-10-09T12:14:53;15.77;;;5.10;;
22415;SDS011;12204;50.600;4.608;2023-10-09T12:19:58;11.10;;;4.93;;
22415;SDS011;12204;50.600;4.608;2023-10-09T12:25:05;12.18;;;4.80;;
22415;SDS011;12204;50.600;4.608;2023-10-09T12:30:11;12.30;;;4.45;;
22415;SDS011;12204;50.600;4.608;2023-10-09T12:35:17;12.68;;;4.60;;
22415;SDS011;12204;50.600;4.608;2023-10-09T12:40:21;10.98;;;4.07;;
22415;SDS011;12204;50.600;4.608;2023-10-09T12:45:33;16.15;;;4.55;;
22415;SDS011;12204;50.600;4.608;2023-10-09T12:50:38;15.77;;;4.72;;
22415;SDS011;12204;50.600;4.608;2023-10-09T12:55:45;12.90;;;4.30;;
22415;SDS011;12204;50.600;4.608;2023-10-09T13:00:49;11.90;;;4.10;;
22415;SDS011;12204;50.600;4.608;2023-10-09T13:05:54;12.75;;;4.10;;
22415;SDS011;12204;50.600;4.608;2023-10-09T13:11:01;9.80;;;4.05;;
22415;SDS011;12204;50.600;4.608;2023-10-09T13:16:13;9.07;;;3.95;;
22415;SDS011;12204;50.600;4.608;2023-10-09T13:21:26;9.40;;;4.30;;
22415;SDS011;12204;50.600;4.608;2023-10-09T13:26:33;12.85;;;4.30;;
22415;SDS011;12204;50.600;4.608;2023-10-09T13:31:37;10.55;;;4.18;;
22415;SDS011;12204;50.600;4.608;2023-10-09T13:36:49;12.73;;;4.35;;
22415;SDS011;12204;50.600;4.608;2023-10-09T13:41:55;9.60;;;4.00;;
22415;SDS011;12204;50.600;4.608;2023-10-09T13:47:02;8.90;;;3.90;;
22415;SDS011;12204;50.600;4.608;2023-10-09T13:52:09;10.35;;;4.30;;
22415;SDS011;12204;50.600;4.608;2023-10-09T13:57:19;8.93;;;3.58;;
22415;SDS011;12204;50.600;4.608;2023-10-09T14:02:24;9.90;;;3.85;;
22415;SDS011;12204;50.600;4.608;2023-10-09T14:07:31;11.13;;;4.22;;
22415;SDS011;12204;50.600;4.608;2023-10-09T14:12:36;10.55;;;3.95;;
22415;SDS011;12204;50.600;4.608;2023-10-09T14:17:42;8.93;;;3.92;;
22415;SDS011;12204;50.600;4.608;2023-10-09T14:22:49;9.77;;;3.75;;
22415;SDS011;12204;50.600;4.608;2023-10-09T14:27:54;10.38;;;3.90;;
22415;SDS011;12204;50.600;4.608;2023-10-09T14:32:59;9.48;;;4.00;;
22415;SDS011;12204;50.600;4.608;2023-10-09T14:38:05;8.27;;;3.80;;
22415;SDS011;12204;50.600;4.608;2023-10-09T14:43:13;8.80;;;3.80;;
22415;SDS011;12204;50.600;4.608;2023-10-09T14:48:24;10.13;;;3.97;;
22415;SDS011;12204;50.600;4.608;2023-10-09T14:53:29;8.30;;;4.00;;
22415;SDS011;12204;50.600;4.608;2023-10-09T14:58:35;8.45;;;4.00;;
22415;SDS011;12204;50.600;4.608;2023-10-09T15:03:41;10.45;;;3.70;;
22415;SDS011;12204;50.600;4.608;2023-10-09T15:08:46;9.15;;;4.03;;
22415;SDS011;12204;50.600;4.608;2023-10-09T15:13:51;9.35;;;3.95;;
22415;SDS011;12204;50.600;4.608;2023-10-09T15:18:55;8.07;;;3.80;;
22415;SDS011;12204;50.600;4.608;2023-10-09T15:24:06;8.95;;;3.60;;
22415;SDS011;12204;50.600;4.608;2023-10-09T15:29:10;7.80;;;3.58;;
22415;SDS011;12204;50.600;4.608;2023-10-09T15:34:15;8.55;;;3.72;;
22415;SDS011;12204;50.600;4.608;2023-10-09T15:39:21;8.25;;;3.60;;
22415;SDS011;12204;50.600;4.608;2023-10-09T15:44:25;6.85;;;3.40;;
22415;SDS011;12204;50.600;4.608;2023-10-09T15:49:29;7.25;;;3.45;;
22415;SDS011;12204;50.600;4.608;2023-10-09T15:54:34;9.65;;;3.80;;
22415;SDS011;12204;50.600;4.608;2023-10-09T15:59:38;9.20;;;3.90;;
22415;SDS011;12204;50.600;4.608;2023-10-09T16:04:41;7.43;;;3.50;;
22415;SDS011;12204;50.600;4.608;2023-10-09T16:09:47;8.32;;;3.50;;
22415;SDS011;12204;50.600;4.608;2023-10-09T16:14:51;9.10;;;3.45;;
22415;SDS011;12204;50.600;4.608;2023-10-09T16:19:55;8.38;;;3.70;;
22415;SDS011;12204;50.600;4.608;2023-10-09T16:25:00;8.50;;;3.60;;
22415;SDS011;12204;50.600;4.608;2023-10-09T16:30:11;7.18;;;3.38;;
22415;SDS011;12204;50.600;4.608;2023-10-09T16:35:19;8.65;;;3.47;;
22415;SDS011;12204;50.600;4.608;2023-10-09T16:40:25;8.38;;;3.50;;
22415;SDS011;12204;50.600;4.608;2023-10-09T16:45:29;7.22;;;3.60;;
22415;SDS011;12204;50.600;4.608;2023-10-09T16:50:37;8.13;;;3.03;;
22415;SDS011;12204;50.600;4.608;2023-10-09T16:55:42;6.90;;;3.38;;
22415;SDS011;12204;50.600;4.608;2023-10-09T17:00:46;8.50;;;3.35;;
22415;SDS011;12204;50.600;4.608;2023-10-09T17:05:50;7.35;;;3.30;;
22415;SDS011;12204;50.600;4.608;2023-10-09T17:11:01;7.53;;;3.17;;
22415;SDS011;12204;50.600;4.608;2023-10-09T17:16:13;8.25;;;3.22;;
22415;SDS011;12204;50.600;4.608;2023-10-09T17:21:19;9.02;;;3.22;;
22415;SDS011;12204;50.600;4.608;2023-10-09T17:26:26;8.77;;;3.53;;
22415;SDS011;12204;50.600;4.608;2023-10-09T17:31:32;10.18;;;3.40;;
22415;SDS011;12204;50.600;4.608;2023-10-09T17:36:37;11.30;;;3.55;;
22415;SDS011;12204;50.600;4.608;2023-10-09T17:41:42;10.02;;;3.50;;
22415;SDS011;12204;50.600;4.608;2023-10-09T17:46:45;9.02;;;3.10;;
22415;SDS011;12204;50.600;4.608;2023-10-09T17:51:49;11.30;;;3.38;;
22415;SDS011;12204;50.600;4.608;2023-10-09T17:56:55;7.57;;;2.90;;
22415;SDS011;12204;50.600;4.608;2023-10-09T18:02:01;8.52;;;3.20;;
22415;SDS011;12204;50.600;4.608;2023-10-09T18:07:05;7.83;;;2.90;;
22415;SDS011;12204;50.600;4.608;2023-10-09T18:12:16;8.93;;;3.50;;
22415;SDS011;12204;50.600;4.608;2023-10-09T18:17:20;9.05;;;3.15;;
22415;SDS011;12204;50.600;4.608;2023-10-09T18:22:30;6.82;;;2.90;;
22415;SDS011;12204;50.600;4.608;2023-10-09T18:27:38;7.25;;;2.80;;
22415;SDS011;12204;50.600;4.608;2023-10-09T18:32:45;7.82;;;3.17;;
22415;SDS011;12204;50.600;4.608;2023-10-09T18:37:52;6.45;;;2.95;;
22415;SDS011;12204;50.600;4.608;2023-10-09T18:43:02;7.00;;;2.88;;
22415;SDS011;12204;50.600;4.608;2023-10-09T18:48:09;6.82;;;2.80;;
22415;SDS011;12204;50.600;4.608;2023-10-09T18:53:19;7.85;;;2.90;;
22415;SDS011;12204;50.600;4.608;2023-10-09T18:58:26;8.82;;;2.78;;
22415;SDS011;12204;50.600;4.608;2023-10-09T19:03:33;7.95;;;2.83;;
22415;SDS011;12204;50.600;4.608;2023-10-09T19:08:37;7.32;;;2.90;;
22415;SDS011;12204;50.600;4.608;2023-10-09T19:13:42;7.10;;;2.90;;
22415;SDS011;12204;50.600;4.608;2023-10-09T19:18:45;6.43;;;2.80;;
22415;SDS011;12204;50.600;4.608;2023-10-09T19:23:49;7.55;;;2.70;;
22415;SDS011;12204;50.600;4.608;2023-10-09T19:28:54;6.65;;;3.00;;
22415;SDS011;12204;50.600;4.608;2023-10-09T19:33:58;8.52;;;3.35;;
22415;SDS011;12204;50.600;4.608;2023-10-09T19:39:02;11.35;;;3.30;;
22415;SDS011;12204;50.600;4.608;2023-10-09T19:44:07;10.48;;;3.28;;
22415;SDS011;12204;50.600;4.608;2023-10-09T19:49:12;6.97;;;3.10;;
22415;SDS011;12204;50.600;4.608;2023-10-09T19:54:19;8.32;;;3.20;;
22415;SDS011;12204;50.600;4.608;2023-10-09T19:59:24;12.15;;;3.17;;
22415;SDS011;12204;50.600;4.608;2023-10-09T20:04:28;10.80;;;3.60;;
22415;SDS011;12204;50.600;4.608;2023-10-09T20:09:31;9.50;;;3.38;;
22415;SDS011;12204;50.600;4.608;2023-10-09T20:14:36;8.63;;;3.00;;
22415;SDS011;12204;50.600;4.608;2023-10-09T20:19:40;7.85;;;3.15;;
22415;SDS011;12204;50.600;4.608;2023-10-09T20:24:44;8.70;;;3.05;;
22415;SDS011;12204;50.600;4.608;2023-10-09T20:29:49;7.40;;;2.92;;
22415;SDS011;12204;50.600;4.608;2023-10-09T20:34:55;8.88;;;2.60;;
22415;SDS011;12204;50.600;4.608;2023-10-09T20:39:59;8.27;;;2.80;;
22415;SDS011;12204;50.600;4.608;2023-10-09T20:45:06;9.75;;;2.88;;
22415;SDS011;12204;50.600;4.608;2023-10-09T20:50:09;9.32;;;2.80;;
22415;SDS011;12204;50.600;4.608;2023-10-09T20:55:16;10.68;;;3.00;;
22415;SDS011;12204;50.600;4.608;2023-10-09T21:00:26;8.50;;;2.70;;
22415;SDS011;12204;50.600;4.608;2023-10-09T21:05:33;6.70;;;2.70;;
22415;SDS011;12204;50.600;4.608;2023-10-09T21:10:37;9.60;;;2.67;;
22415;SDS011;12204;50.600;4.608;2023-10-09T21:15:43;8.63;;;2.58;;
22415;SDS011;12204;50.600;4.608;2023-10-09T21:20:47;9.20;;;2.92;;
22415;SDS011;12204;50.600;4.608;2023-10-09T21:25:52;8.93;;;2.90;;
22415;SDS011;12204;50.600;4.608;2023-10-09T21:30:57;15.98;;;2.70;;
22415;SDS011;12204;50.600;4.608;2023-10-09T21:36:00;27.23;;;2.90;;
22415;SDS011;12204;50.600;4.608;2023-10-09T21:41:08;14.27;;;2.78;;
22415;SDS011;12204;50.600;4.608;2023-10-09T21:46:15;14.57;;;2.92;;
22415;SDS011;12204;50.600;4.608;2023-10-09T21:51:19;9.82;;;2.75;;
22415;SDS011;12204;50.600;4.608;2023-10-09T21:56:22;13.40;;;2.65;;
22415;SDS011;12204;50.600;4.608;2023-10-09T22:01:28;9.27;;;2.72;;
22415;SDS011;12204;50.600;4.608;2023-10-09T22:06:32;8.02;;;2.60;;
22415;SDS011;12204;50.600;4.608;2023-10-09T22:11:36;7.80;;;2.58;;
22415;SDS011;12204;50.600;4.608;2023-10-09T22:16:41;7.97;;;2.63;;
22415;SDS011;12204;50.600;4.608;2023-10-09T22:21:46;7.68;;;2.78;;
22415;SDS011;12204;50.600;4.608;2023-10-09T22:26:49;6.72;;;2.50;;
22415;SDS011;12204;50.600;4.608;2023-10-09T22:31:54;7.80;;;2.78;;
22415;SDS011;12204;50.600;4.608;2023-10-09T22:37:01;10.32;;;2.70;;
22415;SDS011;12204;50.600;4.608;2023-10-09T22:42:14;14.73;;;2.67;;
22415;SDS011;12204;50.600;4.608;2023-10-09T22:47:20;10.75;;;2.30;;
22415;SDS011;12204;50.600;4.608;2023-10-09T22:52:24;7.63;;;2.42;;
22415;SDS011;12204;50.600;4.608;2023-10-09T22:57:28;7.75;;;2.42;;
22415;SDS011;12204;50.600;4.608;2023-10-09T23:02:33;10.27;;;2.58;;
22415;SDS011;12204;50.600;4.608;2023-10-09T23:07:58;5.83;;;2.40;;
22415;SDS011;12204;50.600;4.608;2023-10-09T23:13:03;7.82;;;2.55;;
22415;SDS011;12204;50.600;4.608;2023-10-09T23:18:18;9.07;;;2.90;;
22415;SDS011;12204;50.600;4.608;2023-10-09T23:23:41;11.25;;;2.85;;
22415;SDS011;12204;50.600;4.608;2023-10-09T23:28:45;8.98;;;3.03;;
22415;SDS011;12204;50.600;4.608;2023-10-09T23:33:55;8.45;;;3.00;;
22415;SDS011;12204;50.600;4.608;2023-10-09T23:38:59;11.50;;;3.30;;
22415;SDS011;12204;50.600;4.608;2023-10-09T23:44:38;11.38;;;3.00;;
22415;SDS011;12204;50.600;4.608;2023-10-09T23:49:43;10.48;;;3.13;;
